PWSweather.com
Personal Weather Stations
Station Observations
KOMOKA
Komoka Village, Komoka, ON N0L IRO

Komoka VillageKomoka, ON N0L IRO

Lat: 42.9542444, Lon: -81.4348861

Elevation: 805

Station Type: Davis Vantage Pro 2

www.komokaweather.com

High Low Average
Temperature 68.5°F20.3°C 49.6°F9.8°C 59.2°F15.1°C
Dew Point 53.8°F12.1°C 39.7°F4.3°C 47.2°F8.4°C
Winds 7.0 mph 11.3 kmh Calm Calm 1.0 mph ENE1.6 kmh ENE
Wind Gusts 21.0 mph33.8 kmh -- 5.0 mph8.0 kmh
Humidity 75% 45% 65%
Pressure 30.02 in1016.6 mb 29.86 in1011.2 mb -
Precipitation 0.17 in4.3 mm - -
Hour Temp Dew Point Humidity Winds Wind Gusts Pressure Precip Precip Rate Daily Precip Total
12:08 AM 57.7°F14.3°C 46.0°F7.8°C 65% 3.0 mph N4.8 kmh N 8.0 mph12.9 kmh 29.87 in1011.5 mb 0.00 in0.0 mm 0.00 in0.0 mm 0.00 in0.0 mm
12:12 AM 54.0°F12.2°C 43.9°F6.6°C 69% 1.0 mph N1.6 kmh N 4.0 mph6.4 kmh 29.90 in1012.5 mb 0.00 in0.0 mm 0.00 in0.0 mm 0.00 in0.0 mm
12:15 AM 57.7°F14.3°C 46.0°F7.8°C 65% 3.0 mph N4.8 kmh N 12.0 mph19.3 kmh 29.88 in1011.9 mb 0.00 in0.0 mm 0.00 in0.0 mm 0.00 in0.0 mm
12:22 AM 57.9°F14.4°C 46.2°F7.9°C 65% 3.0 mph N4.8 kmh N 8.0 mph12.9 kmh 29.89 in1012.2 mb 0.00 in0.0 mm 0.00 in0.0 mm 0.00 in0.0 mm
12:25 AM 55.4°F13.0°C 45.0°F7.2°C 68% 1.0 mph N1.6 kmh N 8.0 mph12.9 kmh 29.88 in1011.9 mb 0.00 in0.0 mm 0.00 in0.0 mm 0.00 in0.0 mm
12:29 AM 58.1°F14.5°C 46.4°F8.0°C 65% 1.0 mph N1.6 kmh N 7.0 mph11.3 kmh 29.88 in1011.9 mb 0.00 in0.0 mm 0.00 in0.0 mm 0.00 in0.0 mm
12:32 AM 56.5°F13.6°C 45.5°F7.5°C 67% 1.0 mph N1.6 kmh N 8.0 mph12.9 kmh 29.89 in1012.2 mb 0.00 in0.0 mm 0.00 in0.0 mm 0.00 in0.0 mm
12:36 AM 58.1°F14.5°C 46.8°F8.2°C 66% 1.0 mph N1.6 kmh N 7.0 mph11.3 kmh 29.88 in1011.9 mb 0.00 in0.0 mm 0.00 in0.0 mm 0.00 in0.0 mm
12:39 AM 56.8°F13.8°C 45.7°F7.6°C 66% 1.0 mph N1.6 kmh N 4.0 mph6.4 kmh 29.88 in1011.9 mb 0.00 in0.0 mm 0.00 in0.0 mm 0.00 in0.0 mm
12:43 AM 58.1°F14.5°C 46.8°F8.2°C 66% 1.0 mph N1.6 kmh N 7.0 mph11.3 kmh 29.86 in1011.2 mb 0.00 in0.0 mm 0.00 in0.0 mm 0.00 in0.0 mm
12:46 AM 57.2°F14.0°C 45.5°F7.5°C 65% 1.0 mph N1.6 kmh N 7.0 mph11.3 kmh 29.88 in1011.9 mb 0.00 in0.0 mm 0.00 in0.0 mm 0.00 in0.0 mm
12:50 AM 58.3°F14.6°C 46.9°F8.3°C 66% 1.0 mph N1.6 kmh N 7.0 mph11.3 kmh 29.87 in1011.5 mb 0.00 in0.0 mm 0.00 in0.0 mm 0.00 in0.0 mm
12:53 AM 57.6°F14.2°C 45.9°F7.7°C 65% 3.0 mph N4.8 kmh N 5.0 mph8.0 kmh 29.87 in1011.5 mb 0.00 in0.0 mm 0.00 in0.0 mm 0.00 in0.0 mm
12:57 AM 58.5°F14.7°C 47.1°F8.4°C 66% 1.0 mph N1.6 kmh N 7.0 mph11.3 kmh 29.87 in1011.5 mb 0.00 in0.0 mm 0.00 in0.0 mm 0.00 in0.0 mm
01:00 AM 57.6°F14.2°C 46.2°F7.9°C 66% 3.0 mph N4.8 kmh N 7.0 mph11.3 kmh 29.87 in1011.5 mb 0.00 in0.0 mm 0.00 in0.0 mm 0.00 in0.0 mm
01:04 AM 58.5°F14.7°C 47.1°F8.4°C 66% 1.0 mph N1.6 kmh N 4.0 mph6.4 kmh 29.88 in1011.9 mb 0.00 in0.0 mm 0.00 in0.0 mm 0.00 in0.0 mm
01:11 AM 58.5°F14.7°C 47.1°F8.4°C 66% Calm Calm 3.0 mph4.8 kmh 29.88 in1011.9 mb 0.00 in0.0 mm 0.00 in0.0 mm 0.00 in0.0 mm
01:18 AM 58.5°F14.7°C 47.1°F8.4°C 66% Calm Calm 4.0 mph6.4 kmh 29.88 in1011.9 mb 0.00 in0.0 mm 0.00 in0.0 mm 0.00 in0.0 mm
01:25 AM 58.6°F14.8°C 47.3°F8.5°C 66% 1.0 mph N1.6 kmh N 5.0 mph8.0 kmh 29.88 in1011.9 mb 0.00 in0.0 mm 0.00 in0.0 mm 0.00 in0.0 mm
01:32 AM 58.8°F14.9°C 47.8°F8.8°C 67% 1.0 mph N1.6 kmh N 7.0 mph11.3 kmh 29.88 in1011.9 mb 0.00 in0.0 mm 0.00 in0.0 mm 0.00 in0.0 mm
01:39 AM 59.0°F15.0°C 47.7°F8.7°C 66% 1.0 mph N1.6 kmh N 4.0 mph6.4 kmh 29.88 in1011.9 mb 0.00 in0.0 mm 0.00 in0.0 mm 0.00 in0.0 mm
01:46 AM 59.4°F15.2°C 48.0°F8.9°C 66% 1.0 mph N1.6 kmh N 8.0 mph12.9 kmh 29.89 in1012.2 mb 0.00 in0.0 mm 0.00 in0.0 mm 0.00 in0.0 mm
01:53 AM 59.4°F15.2°C 48.0°F8.9°C 66% 1.0 mph N1.6 kmh N 4.0 mph6.4 kmh 29.88 in1011.9 mb 0.00 in0.0 mm 0.00 in0.0 mm 0.00 in0.0 mm
02:00 AM 59.4°F15.2°C 48.0°F8.9°C 66% 1.0 mph N1.6 kmh N 4.0 mph6.4 kmh 29.89 in1012.2 mb 0.00 in0.0 mm 0.00 in0.0 mm 0.00 in0.0 mm
02:07 AM 58.8°F14.9°C 48.2°F9.0°C 68% 1.0 mph N1.6 kmh N 4.0 mph6.4 kmh 29.89 in1012.2 mb 0.00 in0.0 mm 0.00 in0.0 mm 0.00 in0.0 mm
02:14 AM 58.5°F14.7°C 48.4°F9.1°C 69% 1.0 mph N1.6 kmh N 4.0 mph6.4 kmh 29.89 in1012.2 mb 0.01 in0.3 mm 0.09 in2.3 mm 0.01 in0.3 mm
02:21 AM 58.3°F14.6°C 48.6°F9.2°C 70% Calm Calm 1.0 mph1.6 kmh 29.89 in1012.2 mb 0.01 in0.3 mm 0.00 in0.0 mm 0.01 in0.3 mm
02:28 AM 58.3°F14.6°C 48.6°F9.2°C 70% Calm Calm 3.0 mph4.8 kmh 29.89 in1012.2 mb 0.01 in0.3 mm 0.00 in0.0 mm 0.01 in0.3 mm
02:35 AM 58.5°F14.7°C 48.7°F9.3°C 70% Calm Calm 3.0 mph4.8 kmh 29.89 in1012.2 mb 0.01 in0.3 mm 0.00 in0.0 mm 0.01 in0.3 mm
02:42 AM 58.5°F14.7°C 48.7°F9.3°C 70% Calm Calm 3.0 mph4.8 kmh 29.89 in1012.2 mb 0.01 in0.3 mm 0.00 in0.0 mm 0.01 in0.3 mm
02:49 AM 58.5°F14.7°C 48.7°F9.3°C 70% Calm Calm 3.0 mph4.8 kmh 29.89 in1012.2 mb 0.01 in0.3 mm 0.00 in0.0 mm 0.01 in0.3 mm
02:56 AM 58.5°F14.7°C 49.1°F9.5°C 71% Calm Calm 1.0 mph1.6 kmh 29.90 in1012.5 mb 0.01 in0.3 mm 0.00 in0.0 mm 0.01 in0.3 mm
03:03 AM 58.5°F14.7°C 49.1°F9.5°C 71% Calm Calm 1.0 mph1.6 kmh 29.91 in1012.9 mb 0.01 in0.3 mm 0.00 in0.0 mm 0.01 in0.3 mm
03:10 AM 58.5°F14.7°C 49.1°F9.5°C 71% Calm Calm -- 29.91 in1012.9 mb 0.02 in0.5 mm 0.09 in2.3 mm 0.02 in0.5 mm
03:17 AM 58.5°F14.7°C 49.5°F9.7°C 72% Calm Calm -- 29.91 in1012.9 mb 0.03 in0.8 mm 0.09 in2.3 mm 0.04 in1.0 mm
03:24 AM 58.5°F14.7°C 49.5°F9.7°C 72% Calm Calm 3.0 mph4.8 kmh 29.91 in1012.9 mb 0.05 in1.3 mm 0.17 in4.3 mm 0.06 in1.5 mm
03:31 AM 58.5°F14.7°C 49.5°F9.7°C 72% Calm Calm 3.0 mph4.8 kmh 29.91 in1012.9 mb 0.06 in1.5 mm 0.09 in2.3 mm 0.07 in1.8 mm
03:38 AM 58.5°F14.7°C 49.5°F9.7°C 72% Calm Calm 3.0 mph4.8 kmh 29.91 in1012.9 mb 0.06 in1.5 mm 0.00 in0.0 mm 0.07 in1.8 mm
03:45 AM 58.3°F14.6°C 49.3°F9.6°C 72% Calm Calm 1.0 mph1.6 kmh 29.91 in1012.9 mb 0.07 in1.8 mm 0.09 in2.3 mm 0.08 in2.0 mm
03:52 AM 58.1°F14.5°C 49.1°F9.5°C 72% Calm Calm 1.0 mph1.6 kmh 29.91 in1012.9 mb 0.08 in2.0 mm 0.09 in2.3 mm 0.09 in2.3 mm
03:59 AM 57.9°F14.4°C 49.5°F9.7°C 73% Calm Calm -- 29.91 in1012.9 mb 0.08 in2.0 mm 0.00 in0.0 mm 0.09 in2.3 mm
04:06 AM 57.9°F14.4°C 49.5°F9.7°C 73% Calm Calm 3.0 mph4.8 kmh 29.91 in1012.9 mb 0.08 in2.0 mm 0.00 in0.0 mm 0.09 in2.3 mm
04:13 AM 57.9°F14.4°C 49.6°F9.8°C 74% Calm Calm 1.0 mph1.6 kmh 29.92 in1013.2 mb 0.07 in1.8 mm 0.00 in0.0 mm 0.10 in2.5 mm
04:20 AM 57.9°F14.4°C 49.6°F9.8°C 74% Calm Calm 1.0 mph1.6 kmh 29.93 in1013.5 mb 0.06 in1.5 mm 0.00 in0.0 mm 0.10 in2.5 mm
04:27 AM 57.7°F14.3°C 49.5°F9.7°C 74% Calm Calm 1.0 mph1.6 kmh 29.92 in1013.2 mb 0.04 in1.0 mm 0.00 in0.0 mm 0.10 in2.5 mm
04:34 AM 57.7°F14.3°C 49.8°F9.9°C 75% Calm Calm 1.0 mph1.6 kmh 29.91 in1012.9 mb 0.03 in0.8 mm 0.00 in0.0 mm 0.10 in2.5 mm
04:41 AM 57.9°F14.4°C 50.0°F10.0°C 75% Calm Calm 3.0 mph4.8 kmh 29.91 in1012.9 mb 0.03 in0.8 mm 0.00 in0.0 mm 0.10 in2.5 mm
04:48 AM 57.9°F14.4°C 50.0°F10.0°C 75% Calm Calm -- 29.91 in1012.9 mb 0.02 in0.5 mm 0.00 in0.0 mm 0.10 in2.5 mm
04:55 AM 57.7°F14.3°C 50.0°F10.0°C 75% Calm Calm 3.0 mph4.8 kmh 29.91 in1012.9 mb 0.02 in0.5 mm 0.00 in0.0 mm 0.10 in2.5 mm
05:02 AM 57.7°F14.3°C 50.0°F10.0°C 75% Calm Calm 3.0 mph4.8 kmh 29.90 in1012.5 mb 0.01 in0.3 mm 0.00 in0.0 mm 0.10 in2.5 mm
05:09 AM 57.7°F14.3°C 49.8°F9.9°C 75% Calm Calm -- 29.90 in1012.5 mb 0.00 in0.0 mm 0.00 in0.0 mm 0.10 in2.5 mm
05:16 AM 57.4°F14.1°C 49.5°F9.7°C 75% Calm Calm -- 29.90 in1012.5 mb 0.00 in0.0 mm 0.00 in0.0 mm 0.10 in2.5 mm
05:23 AM 57.4°F14.1°C 49.5°F9.7°C 75% Calm Calm -- 29.90 in1012.5 mb 0.00 in0.0 mm 0.00 in0.0 mm 0.10 in2.5 mm
05:30 AM 57.4°F14.1°C 49.5°F9.7°C 75% Calm Calm 4.0 mph6.4 kmh 29.90 in1012.5 mb 0.00 in0.0 mm 0.00 in0.0 mm 0.10 in2.5 mm
05:37 AM 57.4°F14.1°C 49.5°F9.7°C 75% 1.0 mph N1.6 kmh N 3.0 mph4.8 kmh 29.90 in1012.5 mb 0.00 in0.0 mm 0.00 in0.0 mm 0.10 in2.5 mm
05:44 AM 57.2°F14.0°C 49.3°F9.6°C 75% Calm Calm 1.0 mph1.6 kmh 29.90 in1012.5 mb 0.00 in0.0 mm 0.00 in0.0 mm 0.10 in2.5 mm
05:51 AM 57.4°F14.1°C 49.5°F9.7°C 75% Calm Calm -- 29.91 in1012.9 mb 0.00 in0.0 mm 0.00 in0.0 mm 0.10 in2.5 mm
05:58 AM 57.2°F14.0°C 49.3°F9.6°C 75% Calm Calm 3.0 mph4.8 kmh 29.91 in1012.9 mb 0.00 in0.0 mm 0.00 in0.0 mm 0.10 in2.5 mm
06:05 AM 57.2°F14.0°C 49.3°F9.6°C 75% Calm Calm 3.0 mph4.8 kmh 29.91 in1012.9 mb 0.00 in0.0 mm 0.00 in0.0 mm 0.10 in2.5 mm
06:12 AM 57.4°F14.1°C 49.5°F9.7°C 75% Calm Calm 1.0 mph1.6 kmh 29.92 in1013.2 mb 0.00 in0.0 mm 0.00 in0.0 mm 0.10 in2.5 mm
06:19 AM 57.7°F14.3°C 49.8°F9.9°C 75% Calm Calm 1.0 mph1.6 kmh 29.92 in1013.2 mb 0.00 in0.0 mm 0.00 in0.0 mm 0.10 in2.5 mm
06:26 AM 57.9°F14.4°C 50.0°F10.0°C 75% Calm Calm -- 29.92 in1013.2 mb 0.00 in0.0 mm 0.00 in0.0 mm 0.10 in2.5 mm
06:33 AM 58.1°F14.5°C 50.2°F10.1°C 75% Calm Calm 1.0 mph1.6 kmh 29.92 in1013.2 mb 0.00 in0.0 mm 0.00 in0.0 mm 0.10 in2.5 mm
06:40 AM 58.3°F14.6°C 50.4°F10.2°C 75% Calm Calm 1.0 mph1.6 kmh 29.92 in1013.2 mb 0.00 in0.0 mm 0.00 in0.0 mm 0.10 in2.5 mm
06:47 AM 58.3°F14.6°C 50.4°F10.2°C 75% Calm Calm 1.0 mph1.6 kmh 29.92 in1013.2 mb 0.02 in0.5 mm 0.17 in4.3 mm 0.13 in3.3 mm
07:53 AM 58.5°F14.7°C 50.5°F10.3°C 75% Calm Calm 3.0 mph4.8 kmh 29.91 in1012.9 mb 0.00 in0.0 mm 0.00 in0.0 mm 0.13 in3.3 mm
08:00 AM 58.5°F14.7°C 50.5°F10.3°C 75% Calm Calm 3.0 mph4.8 kmh 29.92 in1013.2 mb 0.00 in0.0 mm 0.00 in0.0 mm 0.13 in3.3 mm
08:07 AM 58.6°F14.8°C 50.7°F10.4°C 75% Calm Calm 1.0 mph1.6 kmh 29.92 in1013.2 mb 0.00 in0.0 mm 0.00 in0.0 mm 0.13 in3.3 mm
08:14 AM 58.6°F14.8°C 50.7°F10.4°C 75% Calm Calm 1.0 mph1.6 kmh 29.93 in1013.5 mb 0.00 in0.0 mm 0.00 in0.0 mm 0.13 in3.3 mm
08:21 AM 58.8°F14.9°C 50.9°F10.5°C 75% Calm Calm 1.0 mph1.6 kmh 29.93 in1013.5 mb 0.00 in0.0 mm 0.00 in0.0 mm 0.13 in3.3 mm
08:28 AM 59.2°F15.1°C 51.3°F10.7°C 75% Calm Calm 1.0 mph1.6 kmh 29.93 in1013.5 mb 0.00 in0.0 mm 0.00 in0.0 mm 0.13 in3.3 mm
08:35 AM 59.5°F15.3°C 51.6°F10.9°C 75% Calm Calm 1.0 mph1.6 kmh 29.92 in1013.2 mb 0.00 in0.0 mm 0.00 in0.0 mm 0.13 in3.3 mm
08:42 AM 60.3°F15.7°C 52.2°F11.2°C 75% Calm Calm -- 29.92 in1013.2 mb 0.00 in0.0 mm 0.00 in0.0 mm 0.13 in3.3 mm
08:49 AM 60.4°F15.8°C 51.8°F11.0°C 73% Calm Calm 3.0 mph4.8 kmh 29.92 in1013.2 mb 0.00 in0.0 mm 0.00 in0.0 mm 0.13 in3.3 mm
08:56 AM 60.8°F16.0°C 52.2°F11.2°C 73% 1.0 mph N1.6 kmh N 5.0 mph8.0 kmh 29.92 in1013.2 mb 0.00 in0.0 mm 0.00 in0.0 mm 0.13 in3.3 mm
09:03 AM 61.3°F16.3°C 51.8°F11.0°C 71% Calm Calm 4.0 mph6.4 kmh 29.92 in1013.2 mb 0.00 in0.0 mm 0.00 in0.0 mm 0.13 in3.3 mm
09:10 AM 61.7°F16.5°C 52.2°F11.2°C 71% Calm Calm 4.0 mph6.4 kmh 29.92 in1013.2 mb 0.00 in0.0 mm 0.00 in0.0 mm 0.13 in3.3 mm
09:17 AM 62.8°F17.1°C 52.9°F11.6°C 70% 1.0 mph N1.6 kmh N 4.0 mph6.4 kmh 29.92 in1013.2 mb 0.00 in0.0 mm 0.00 in0.0 mm 0.13 in3.3 mm
09:24 AM 62.6°F17.0°C 52.3°F11.3°C 69% 1.0 mph N1.6 kmh N 4.0 mph6.4 kmh 29.93 in1013.5 mb 0.00 in0.0 mm 0.00 in0.0 mm 0.13 in3.3 mm
09:31 AM 62.8°F17.1°C 52.5°F11.4°C 69% 1.0 mph N1.6 kmh N 7.0 mph11.3 kmh 29.93 in1013.5 mb 0.00 in0.0 mm 0.00 in0.0 mm 0.13 in3.3 mm
09:38 AM 63.1°F17.3°C 52.7°F11.5°C 69% 1.0 mph N1.6 kmh N 5.0 mph8.0 kmh 29.93 in1013.5 mb 0.00 in0.0 mm 0.00 in0.0 mm 0.13 in3.3 mm
09:45 AM 63.7°F17.6°C 52.9°F11.6°C 68% 1.0 mph N1.6 kmh N 7.0 mph11.3 kmh 29.93 in1013.5 mb 0.00 in0.0 mm 0.00 in0.0 mm 0.13 in3.3 mm
09:52 AM 64.4°F18.0°C 52.9°F11.6°C 66% 3.0 mph N4.8 kmh N 9.0 mph14.5 kmh 29.93 in1013.5 mb 0.00 in0.0 mm 0.00 in0.0 mm 0.13 in3.3 mm
09:59 AM 64.6°F18.1°C 52.9°F11.6°C 66% 4.0 mph SW6.4 kmh SW 13.0 mph20.9 kmh 29.93 in1013.5 mb 0.00 in0.0 mm 0.00 in0.0 mm 0.13 in3.3 mm
10:06 AM 64.0°F17.8°C 51.6°F10.9°C 64% 4.0 mph SW6.4 kmh SW 9.0 mph14.5 kmh 29.93 in1013.5 mb 0.00 in0.0 mm 0.00 in0.0 mm 0.13 in3.3 mm
10:13 AM 63.3°F17.4°C 51.8°F11.0°C 66% 4.0 mph NW6.4 kmh NW 12.0 mph19.3 kmh 29.93 in1013.5 mb 0.00 in0.0 mm 0.00 in0.0 mm 0.13 in3.3 mm
10:20 AM 62.4°F16.9°C 51.6°F10.9°C 68% 4.0 mph N6.4 kmh N 12.0 mph19.3 kmh 29.94 in1013.9 mb 0.00 in0.0 mm 0.00 in0.0 mm 0.13 in3.3 mm
10:27 AM 61.7°F16.5°C 51.1°F10.6°C 68% 3.0 mph N4.8 kmh N 8.0 mph12.9 kmh 29.93 in1013.5 mb 0.00 in0.0 mm 0.00 in0.0 mm 0.13 in3.3 mm
10:34 AM 61.2°F16.2°C 50.9°F10.5°C 69% 3.0 mph N4.8 kmh N 7.0 mph11.3 kmh 29.93 in1013.5 mb 0.01 in0.3 mm 0.09 in2.3 mm 0.14 in3.6 mm
10:41 AM 60.6°F15.9°C 51.1°F10.6°C 71% 3.0 mph N4.8 kmh N 8.0 mph12.9 kmh 29.93 in1013.5 mb 0.02 in0.5 mm 0.09 in2.3 mm 0.15 in3.8 mm
10:48 AM 61.0°F16.1°C 51.8°F11.0°C 72% Calm Calm 3.0 mph4.8 kmh 29.93 in1013.5 mb 0.03 in0.8 mm 0.09 in2.3 mm 0.16 in4.1 mm
10:55 AM 61.0°F16.1°C 51.8°F11.0°C 72% Calm Calm -- 29.93 in1013.5 mb 0.03 in0.8 mm 0.00 in0.0 mm 0.16 in4.1 mm
11:02 AM 61.0°F16.1°C 51.8°F11.0°C 72% Calm Calm -- 29.93 in1013.5 mb 0.03 in0.8 mm 0.00 in0.0 mm 0.16 in4.1 mm
11:09 AM 61.9°F16.6°C 52.7°F11.5°C 72% Calm Calm 3.0 mph4.8 kmh 29.92 in1013.2 mb 0.03 in0.8 mm 0.00 in0.0 mm 0.16 in4.1 mm
11:16 AM 61.9°F16.6°C 52.0°F11.1°C 70% 1.0 mph N1.6 kmh N 4.0 mph6.4 kmh 29.92 in1013.2 mb 0.03 in0.8 mm 0.00 in0.0 mm 0.16 in4.1 mm
11:23 AM 62.2°F16.8°C 52.7°F11.5°C 71% 1.0 mph N1.6 kmh N 3.0 mph4.8 kmh 29.92 in1013.2 mb 0.03 in0.8 mm 0.00 in0.0 mm 0.16 in4.1 mm
11:30 AM 62.1°F16.7°C 52.2°F11.2°C 70% 1.0 mph N1.6 kmh N 3.0 mph4.8 kmh 29.92 in1013.2 mb 0.02 in0.5 mm 0.00 in0.0 mm 0.16 in4.1 mm
11:37 AM 62.2°F16.8°C 52.0°F11.1°C 69% 1.0 mph N1.6 kmh N 7.0 mph11.3 kmh 29.92 in1013.2 mb 0.01 in0.3 mm 0.00 in0.0 mm 0.16 in4.1 mm
11:44 AM 62.4°F16.9°C 52.5°F11.4°C 70% Calm Calm 7.0 mph11.3 kmh 29.92 in1013.2 mb 0.00 in0.0 mm 0.00 in0.0 mm 0.16 in4.1 mm
11:51 AM 62.4°F16.9°C 52.5°F11.4°C 70% 1.0 mph N1.6 kmh N 5.0 mph8.0 kmh 29.93 in1013.5 mb 0.00 in0.0 mm 0.00 in0.0 mm 0.16 in4.1 mm
11:58 AM 63.0°F17.2°C 52.9°F11.6°C 70% 1.0 mph N1.6 kmh N 3.0 mph4.8 kmh 29.92 in1013.2 mb 0.00 in0.0 mm 0.00 in0.0 mm 0.16 in4.1 mm
12:05 PM 63.1°F17.3°C 53.2°F11.8°C 70% Calm Calm 3.0 mph4.8 kmh 29.92 in1013.2 mb 0.00 in0.0 mm 0.00 in0.0 mm 0.16 in4.1 mm
12:12 PM 63.9°F17.7°C 53.4°F11.9°C 69% 1.0 mph NW1.6 kmh NW 4.0 mph6.4 kmh 29.92 in1013.2 mb 0.00 in0.0 mm 0.00 in0.0 mm 0.16 in4.1 mm
12:19 PM 64.8°F18.2°C 53.6°F12.0°C 67% 3.0 mph SSW4.8 kmh SSW 7.0 mph11.3 kmh 29.92 in1013.2 mb 0.00 in0.0 mm 0.00 in0.0 mm 0.16 in4.1 mm
12:26 PM 65.5°F18.6°C 53.8°F12.1°C 66% 3.0 mph SSW4.8 kmh SSW 8.0 mph12.9 kmh 29.92 in1013.2 mb 0.00 in0.0 mm 0.00 in0.0 mm 0.16 in4.1 mm
12:33 PM 64.8°F18.2°C 52.7°F11.5°C 65% 4.0 mph SW6.4 kmh SW 8.0 mph12.9 kmh 29.93 in1013.5 mb 0.00 in0.0 mm 0.00 in0.0 mm 0.16 in4.1 mm
12:40 PM 64.9°F18.3°C 53.2°F11.8°C 66% 4.0 mph SW6.4 kmh SW 13.0 mph20.9 kmh 29.92 in1013.2 mb 0.00 in0.0 mm 0.00 in0.0 mm 0.16 in4.1 mm
12:47 PM 65.1°F18.4°C 53.1°F11.7°C 65% 5.0 mph WSW8.0 kmh WSW 13.0 mph20.9 kmh 29.93 in1013.5 mb 0.00 in0.0 mm 0.00 in0.0 mm 0.16 in4.1 mm
12:54 PM 65.3°F18.5°C 53.2°F11.8°C 65% 5.0 mph SW8.0 kmh SW 9.0 mph14.5 kmh 29.93 in1013.5 mb 0.00 in0.0 mm 0.00 in0.0 mm 0.16 in4.1 mm
01:01 PM 64.9°F18.3°C 52.0°F11.1°C 63% 7.0 mph WSW11.3 kmh WSW 21.0 mph33.8 kmh 29.93 in1013.5 mb 0.01 in0.3 mm 0.01 in0.3 mm 0.17 in4.3 mm
01:08 PM 64.2°F17.9°C 51.3°F10.7°C 63% 7.0 mph WSW11.3 kmh WSW 19.0 mph30.6 kmh 29.93 in1013.5 mb 0.01 in0.3 mm 0.00 in0.0 mm 0.17 in4.3 mm
01:15 PM 64.4°F18.0°C 50.7°F10.4°C 61% 5.0 mph WSW8.0 kmh WSW 12.0 mph19.3 kmh 29.93 in1013.5 mb 0.01 in0.3 mm 0.00 in0.0 mm 0.17 in4.3 mm
01:22 PM 65.7°F18.7°C 51.4°F10.8°C 60% 5.0 mph SW8.0 kmh SW 15.0 mph24.1 kmh 29.93 in1013.5 mb 0.01 in0.3 mm 0.00 in0.0 mm 0.17 in4.3 mm
01:29 PM 65.8°F18.8°C 50.7°F10.4°C 58% 7.0 mph WSW11.3 kmh WSW 20.0 mph32.2 kmh 29.93 in1013.5 mb 0.01 in0.3 mm 0.00 in0.0 mm 0.17 in4.3 mm
01:36 PM 66.7°F19.3°C 51.4°F10.8°C 58% 7.0 mph NW11.3 kmh NW 17.0 mph27.4 kmh 29.94 in1013.9 mb 0.01 in0.3 mm 0.00 in0.0 mm 0.17 in4.3 mm
01:43 PM 66.9°F19.4°C 50.7°F10.4°C 56% 7.0 mph WNW11.3 kmh WNW 20.0 mph32.2 kmh 29.94 in1013.9 mb 0.01 in0.3 mm 0.00 in0.0 mm 0.17 in4.3 mm
01:50 PM 66.4°F19.1°C 50.5°F10.3°C 57% 7.0 mph SW11.3 kmh SW 19.0 mph30.6 kmh 29.94 in1013.9 mb 0.01 in0.3 mm 0.00 in0.0 mm 0.17 in4.3 mm
01:57 PM 66.4°F19.1°C 51.1°F10.6°C 58% 5.0 mph SW8.0 kmh SW 17.0 mph27.4 kmh 29.94 in1013.9 mb 0.00 in0.0 mm 0.00 in0.0 mm 0.17 in4.3 mm
02:04 PM 66.9°F19.4°C 50.7°F10.4°C 56% 4.0 mph SW6.4 kmh SW 12.0 mph19.3 kmh 29.94 in1013.9 mb 0.00 in0.0 mm 0.00 in0.0 mm 0.17 in4.3 mm
02:11 PM 66.6°F19.2°C 50.4°F10.2°C 56% 5.0 mph SW8.0 kmh SW 16.0 mph25.7 kmh 29.94 in1013.9 mb 0.00 in0.0 mm 0.00 in0.0 mm 0.17 in4.3 mm
02:18 PM 66.6°F19.2°C 50.9°F10.5°C 57% 4.0 mph WSW6.4 kmh WSW 16.0 mph25.7 kmh 29.94 in1013.9 mb 0.00 in0.0 mm 0.00 in0.0 mm 0.17 in4.3 mm
02:25 PM 66.9°F19.4°C 51.1°F10.6°C 57% 5.0 mph WSW8.0 kmh WSW 12.0 mph19.3 kmh 29.94 in1013.9 mb 0.00 in0.0 mm 0.00 in0.0 mm 0.17 in4.3 mm
02:32 PM 67.3°F19.6°C 51.6°F10.9°C 57% 4.0 mph SW6.4 kmh SW 13.0 mph20.9 kmh 29.94 in1013.9 mb 0.00 in0.0 mm 0.00 in0.0 mm 0.17 in4.3 mm
02:39 PM 67.6°F19.8°C 50.9°F10.5°C 55% 5.0 mph SW8.0 kmh SW 15.0 mph24.1 kmh 29.94 in1013.9 mb 0.00 in0.0 mm 0.00 in0.0 mm 0.17 in4.3 mm
02:46 PM 68.0°F20.0°C 51.3°F10.7°C 55% 5.0 mph SW8.0 kmh SW 13.0 mph20.9 kmh 29.94 in1013.9 mb 0.00 in0.0 mm 0.00 in0.0 mm 0.17 in4.3 mm
02:53 PM 67.8°F19.9°C 51.4°F10.8°C 56% 4.0 mph SW6.4 kmh SW 13.0 mph20.9 kmh 29.94 in1013.9 mb 0.00 in0.0 mm 0.00 in0.0 mm 0.17 in4.3 mm
03:00 PM 68.0°F20.0°C 51.3°F10.7°C 55% 4.0 mph W6.4 kmh W 9.0 mph14.5 kmh 29.94 in1013.9 mb 0.00 in0.0 mm 0.00 in0.0 mm 0.17 in4.3 mm
03:07 PM 68.5°F20.3°C 51.6°F10.9°C 55% 5.0 mph W8.0 kmh W 12.0 mph19.3 kmh 29.95 in1014.2 mb 0.00 in0.0 mm 0.00 in0.0 mm 0.17 in4.3 mm
03:14 PM 68.4°F20.2°C 51.6°F10.9°C 55% 4.0 mph W6.4 kmh W 16.0 mph25.7 kmh 29.94 in1013.9 mb 0.00 in0.0 mm 0.00 in0.0 mm 0.17 in4.3 mm
03:21 PM 68.4°F20.2°C 50.0°F10.0°C 52% 3.0 mph SW4.8 kmh SW 13.0 mph20.9 kmh 29.94 in1013.9 mb 0.00 in0.0 mm 0.00 in0.0 mm 0.17 in4.3 mm
03:28 PM 67.1°F19.5°C 50.4°F10.2°C 55% 4.0 mph WSW6.4 kmh WSW 13.0 mph20.9 kmh 29.94 in1013.9 mb 0.00 in0.0 mm 0.00 in0.0 mm 0.17 in4.3 mm
03:35 PM 66.7°F19.3°C 50.0°F10.0°C 55% 3.0 mph NNW4.8 kmh NNW 8.0 mph12.9 kmh 29.94 in1013.9 mb 0.00 in0.0 mm 0.00 in0.0 mm 0.17 in4.3 mm
03:42 PM 66.4°F19.1°C 47.7°F8.7°C 51% 4.0 mph N6.4 kmh N 9.0 mph14.5 kmh 29.94 in1013.9 mb 0.00 in0.0 mm 0.00 in0.0 mm 0.17 in4.3 mm
03:49 PM 66.6°F19.2°C 46.8°F8.2°C 49% 4.0 mph N6.4 kmh N 12.0 mph19.3 kmh 29.94 in1013.9 mb 0.00 in0.0 mm 0.00 in0.0 mm 0.17 in4.3 mm
03:56 PM 67.5°F19.7°C 47.5°F8.6°C 49% 3.0 mph NW4.8 kmh NW 8.0 mph12.9 kmh 29.94 in1013.9 mb 0.00 in0.0 mm 0.00 in0.0 mm 0.17 in4.3 mm
04:03 PM 67.6°F19.8°C 47.1°F8.4°C 48% 5.0 mph WSW8.0 kmh WSW 17.0 mph27.4 kmh 29.94 in1013.9 mb 0.00 in0.0 mm 0.00 in0.0 mm 0.17 in4.3 mm
04:10 PM 67.3°F19.6°C 46.8°F8.2°C 48% 5.0 mph WSW8.0 kmh WSW 17.0 mph27.4 kmh 29.95 in1014.2 mb 0.00 in0.0 mm 0.00 in0.0 mm 0.17 in4.3 mm
04:17 PM 66.6°F19.2°C 46.8°F8.2°C 49% 4.0 mph W6.4 kmh W 12.0 mph19.3 kmh 29.94 in1013.9 mb 0.00 in0.0 mm 0.00 in0.0 mm 0.17 in4.3 mm
04:24 PM 66.0°F18.9°C 46.9°F8.3°C 50% 4.0 mph NNW6.4 kmh NNW 8.0 mph12.9 kmh 29.95 in1014.2 mb 0.00 in0.0 mm 0.00 in0.0 mm 0.17 in4.3 mm
04:31 PM 66.0°F18.9°C 46.2°F7.9°C 49% 3.0 mph NW4.8 kmh NW 8.0 mph12.9 kmh 29.95 in1014.2 mb 0.00 in0.0 mm 0.00 in0.0 mm 0.17 in4.3 mm
04:38 PM 66.0°F18.9°C 46.2°F7.9°C 49% 3.0 mph NW4.8 kmh NW 8.0 mph12.9 kmh 29.95 in1014.2 mb 0.00 in0.0 mm 0.00 in0.0 mm 0.17 in4.3 mm
04:45 PM 65.7°F18.7°C 44.2°F6.8°C 46% 3.0 mph W4.8 kmh W 13.0 mph20.9 kmh 29.96 in1014.6 mb 0.00 in0.0 mm 0.00 in0.0 mm 0.17 in4.3 mm
04:52 PM 64.9°F18.3°C 43.2°F6.2°C 45% 4.0 mph NW6.4 kmh NW 13.0 mph20.9 kmh 29.96 in1014.6 mb 0.00 in0.0 mm 0.00 in0.0 mm 0.17 in4.3 mm
04:59 PM 64.2°F17.9°C 43.0°F6.1°C 46% 4.0 mph N6.4 kmh N 8.0 mph12.9 kmh 29.96 in1014.6 mb 0.00 in0.0 mm 0.00 in0.0 mm 0.17 in4.3 mm
05:06 PM 63.9°F17.7°C 42.6°F5.9°C 46% 3.0 mph NNW4.8 kmh NNW 7.0 mph11.3 kmh 29.97 in1014.9 mb 0.00 in0.0 mm 0.00 in0.0 mm 0.17 in4.3 mm
05:13 PM 63.7°F17.6°C 42.4°F5.8°C 46% 3.0 mph NNW4.8 kmh NNW 5.0 mph8.0 kmh 29.96 in1014.6 mb 0.00 in0.0 mm 0.00 in0.0 mm 0.17 in4.3 mm
05:20 PM 63.0°F17.2°C 41.9°F5.5°C 46% 3.0 mph NNW4.8 kmh NNW 5.0 mph8.0 kmh 29.97 in1014.9 mb 0.00 in0.0 mm 0.00 in0.0 mm 0.17 in4.3 mm
05:27 PM 62.4°F16.9°C 41.9°F5.5°C 47% 3.0 mph NW4.8 kmh NW 7.0 mph11.3 kmh 29.97 in1014.9 mb 0.00 in0.0 mm 0.00 in0.0 mm 0.17 in4.3 mm
05:34 PM 62.2°F16.8°C 41.7°F5.4°C 47% 1.0 mph NW1.6 kmh NW 7.0 mph11.3 kmh 29.98 in1015.2 mb 0.00 in0.0 mm 0.00 in0.0 mm 0.17 in4.3 mm
05:41 PM 61.9°F16.6°C 41.4°F5.2°C 47% 1.0 mph WNW1.6 kmh WNW 7.0 mph11.3 kmh 29.98 in1015.2 mb 0.00 in0.0 mm 0.00 in0.0 mm 0.17 in4.3 mm
05:48 PM 61.2°F16.2°C 41.4°F5.2°C 48% 1.0 mph WNW1.6 kmh WNW 7.0 mph11.3 kmh 29.98 in1015.2 mb 0.00 in0.0 mm 0.00 in0.0 mm 0.17 in4.3 mm
05:55 PM 60.8°F16.0°C 41.5°F5.3°C 49% 1.0 mph WNW1.6 kmh WNW 4.0 mph6.4 kmh 29.98 in1015.2 mb 0.00 in0.0 mm 0.00 in0.0 mm 0.17 in4.3 mm
06:02 PM 60.3°F15.7°C 41.5°F5.3°C 50% Calm Calm 4.0 mph6.4 kmh 29.98 in1015.2 mb 0.00 in0.0 mm 0.00 in0.0 mm 0.17 in4.3 mm
06:09 PM 59.7°F15.4°C 41.5°F5.3°C 51% 1.0 mph W1.6 kmh W 3.0 mph4.8 kmh 29.98 in1015.2 mb 0.00 in0.0 mm 0.00 in0.0 mm 0.17 in4.3 mm
06:16 PM 59.2°F15.1°C 41.5°F5.3°C 52% Calm Calm 1.0 mph1.6 kmh 29.98 in1015.2 mb 0.00 in0.0 mm 0.00 in0.0 mm 0.17 in4.3 mm
06:23 PM 58.3°F14.6°C 41.5°F5.3°C 54% Calm Calm 1.0 mph1.6 kmh 29.99 in1015.6 mb 0.00 in0.0 mm 0.00 in0.0 mm 0.17 in4.3 mm
06:30 PM 57.9°F14.4°C 41.9°F5.5°C 55% Calm Calm 1.0 mph1.6 kmh 29.99 in1015.6 mb 0.00 in0.0 mm 0.00 in0.0 mm 0.17 in4.3 mm
06:37 PM 57.6°F14.2°C 41.9°F5.5°C 56% Calm Calm 1.0 mph1.6 kmh 29.99 in1015.6 mb 0.00 in0.0 mm 0.00 in0.0 mm 0.17 in4.3 mm
06:44 PM 57.4°F14.1°C 41.4°F5.2°C 55% Calm Calm 3.0 mph4.8 kmh 30.00 in1015.9 mb 0.00 in0.0 mm 0.00 in0.0 mm 0.17 in4.3 mm
06:51 PM 57.2°F14.0°C 41.2°F5.1°C 55% Calm Calm 3.0 mph4.8 kmh 30.00 in1015.9 mb 0.00 in0.0 mm 0.00 in0.0 mm 0.17 in4.3 mm
06:58 PM 56.7°F13.7°C 41.5°F5.3°C 57% Calm Calm -- 30.01 in1016.3 mb 0.00 in0.0 mm 0.00 in0.0 mm 0.17 in4.3 mm
07:05 PM 56.1°F13.4°C 41.5°F5.3°C 58% Calm Calm -- 30.00 in1015.9 mb 0.00 in0.0 mm 0.00 in0.0 mm 0.17 in4.3 mm
07:12 PM 55.9°F13.3°C 41.4°F5.2°C 58% Calm Calm 1.0 mph1.6 kmh 30.01 in1016.3 mb 0.00 in0.0 mm 0.00 in0.0 mm 0.17 in4.3 mm
07:19 PM 55.8°F13.2°C 42.1°F5.6°C 60% Calm Calm 1.0 mph1.6 kmh 30.00 in1015.9 mb 0.00 in0.0 mm 0.00 in0.0 mm 0.17 in4.3 mm
07:26 PM 55.2°F12.9°C 42.1°F5.6°C 61% Calm Calm -- 30.00 in1015.9 mb 0.00 in0.0 mm 0.00 in0.0 mm 0.17 in4.3 mm
07:33 PM 55.2°F12.9°C 42.1°F5.6°C 61% Calm Calm -- 30.00 in1015.9 mb 0.00 in0.0 mm 0.00 in0.0 mm 0.17 in4.3 mm
07:40 PM 54.3°F12.4°C 41.7°F5.4°C 62% Calm Calm -- 30.00 in1015.9 mb 0.00 in0.0 mm 0.00 in0.0 mm 0.17 in4.3 mm
07:47 PM 53.8°F12.1°C 42.3°F5.7°C 65% Calm Calm -- 30.00 in1015.9 mb 0.00 in0.0 mm 0.00 in0.0 mm 0.17 in4.3 mm
07:54 PM 53.4°F11.9°C 42.4°F5.8°C 66% Calm Calm -- 30.00 in1015.9 mb 0.00 in0.0 mm 0.00 in0.0 mm 0.17 in4.3 mm
08:01 PM 53.2°F11.8°C 42.4°F5.8°C 67% Calm Calm -- 30.00 in1015.9 mb 0.00 in0.0 mm 0.00 in0.0 mm 0.17 in4.3 mm
08:08 PM 52.5°F11.4°C 41.9°F5.5°C 67% Calm Calm -- 30.00 in1015.9 mb 0.00 in0.0 mm 0.00 in0.0 mm 0.17 in4.3 mm
08:15 PM 52.0°F11.1°C 41.4°F5.2°C 67% Calm Calm -- 30.00 in1015.9 mb 0.00 in0.0 mm 0.00 in0.0 mm 0.17 in4.3 mm
08:22 PM 51.6°F10.9°C 41.2°F5.1°C 67% Calm Calm -- 30.00 in1015.9 mb 0.00 in0.0 mm 0.00 in0.0 mm 0.17 in4.3 mm
08:29 PM 51.3°F10.7°C 40.6°F4.8°C 67% Calm Calm -- 30.00 in1015.9 mb 0.00 in0.0 mm 0.00 in0.0 mm 0.17 in4.3 mm
08:36 PM 51.6°F10.9°C 41.0°F5.0°C 67% Calm Calm -- 30.01 in1016.3 mb 0.00 in0.0 mm 0.00 in0.0 mm 0.17 in4.3 mm
08:43 PM 51.4°F10.8°C 40.8°F4.9°C 67% Calm Calm -- 30.01 in1016.3 mb 0.00 in0.0 mm 0.00 in0.0 mm 0.17 in4.3 mm
08:50 PM 51.3°F10.7°C 40.6°F4.8°C 67% Calm Calm -- 30.01 in1016.3 mb 0.00 in0.0 mm 0.00 in0.0 mm 0.17 in4.3 mm
08:57 PM 50.7°F10.4°C 40.6°F4.8°C 68% Calm Calm -- 30.00 in1015.9 mb 0.00 in0.0 mm 0.00 in0.0 mm 0.17 in4.3 mm
09:04 PM 50.4°F10.2°C 40.1°F4.5°C 68% Calm Calm -- 30.00 in1015.9 mb 0.00 in0.0 mm 0.00 in0.0 mm 0.17 in4.3 mm
09:11 PM 49.8°F9.9°C 40.1°F4.5°C 69% Calm Calm -- 30.00 in1015.9 mb 0.00 in0.0 mm 0.00 in0.0 mm 0.17 in4.3 mm
09:18 PM 50.0°F10.0°C 41.0°F5.0°C 71% Calm Calm -- 30.01 in1016.3 mb 0.00 in0.0 mm 0.00 in0.0 mm 0.17 in4.3 mm
09:25 PM 50.2°F10.1°C 41.2°F5.1°C 71% Calm Calm -- 30.02 in1016.6 mb 0.00 in0.0 mm 0.00 in0.0 mm 0.17 in4.3 mm
09:32 PM 49.8°F9.9°C 40.8°F4.9°C 71% Calm Calm -- 30.02 in1016.6 mb 0.00 in0.0 mm 0.00 in0.0 mm 0.17 in4.3 mm
09:39 PM 49.8°F9.9°C 40.8°F4.9°C 71% Calm Calm -- 30.01 in1016.3 mb 0.00 in0.0 mm 0.00 in0.0 mm 0.17 in4.3 mm
09:46 PM 49.6°F9.8°C 40.6°F4.8°C 71% Calm Calm -- 30.01 in1016.3 mb 0.00 in0.0 mm 0.00 in0.0 mm 0.17 in4.3 mm
09:53 PM 50.2°F10.1°C 41.0°F5.0°C 71% Calm Calm -- 30.01 in1016.3 mb 0.00 in0.0 mm 0.00 in0.0 mm 0.17 in4.3 mm
10:00 PM 50.4°F10.2°C 40.5°F4.7°C 69% Calm Calm -- 30.01 in1016.3 mb 0.00 in0.0 mm 0.00 in0.0 mm 0.17 in4.3 mm
10:07 PM 49.8°F9.9°C 40.5°F4.7°C 70% Calm Calm -- 30.01 in1016.3 mb 0.00 in0.0 mm 0.00 in0.0 mm 0.17 in4.3 mm
10:14 PM 50.4°F10.2°C 40.6°F4.8°C 69% Calm Calm -- 30.01 in1016.3 mb 0.00 in0.0 mm 0.00 in0.0 mm 0.17 in4.3 mm
10:21 PM 51.6°F10.9°C 39.7°F4.3°C 64% Calm Calm -- 30.01 in1016.3 mb 0.00 in0.0 mm 0.00 in0.0 mm 0.17 in4.3 mm
10:28 PM 51.3°F10.7°C 39.9°F4.4°C 65% Calm Calm -- 30.02 in1016.6 mb 0.00 in0.0 mm 0.00 in0.0 mm 0.17 in4.3 mm
10:35 PM 51.1°F10.6°C 40.1°F4.5°C 66% Calm Calm -- 30.02 in1016.6 mb 0.00 in0.0 mm 0.00 in0.0 mm 0.17 in4.3 mm
10:42 PM 50.7°F10.4°C 40.3°F4.6°C 67% Calm Calm -- 30.01 in1016.3 mb 0.00 in0.0 mm 0.00 in0.0 mm 0.17 in4.3 mm
10:49 PM 50.7°F10.4°C 39.7°F4.3°C 66% Calm Calm -- 30.01 in1016.3 mb 0.00 in0.0 mm 0.00 in0.0 mm 0.17 in4.3 mm
10:56 PM 50.7°F10.4°C 39.7°F4.3°C 66% Calm Calm -- 30.01 in1016.3 mb 0.00 in0.0 mm 0.00 in0.0 mm 0.17 in4.3 mm
11:03 PM 50.7°F10.4°C 39.9°F4.4°C 66% Calm Calm -- 30.01 in1016.3 mb 0.00 in0.0 mm 0.00 in0.0 mm 0.14 in3.6 mm
11:10 PM 50.7°F10.4°C 40.1°F4.5°C 67% Calm Calm -- 30.01 in1016.3 mb 0.00 in0.0 mm 0.00 in0.0 mm 0.14 in3.6 mm
11:17 PM 50.9°F10.5°C 40.3°F4.6°C 67% Calm Calm -- 30.01 in1016.3 mb 0.00 in0.0 mm 0.00 in0.0 mm 0.14 in3.6 mm
11:24 PM 51.1°F10.6°C 40.5°F4.7°C 67% Calm Calm -- 30.01 in1016.3 mb 0.00 in0.0 mm 0.00 in0.0 mm 0.14 in3.6 mm
11:31 PM 50.7°F10.4°C 40.1°F4.5°C 67% Calm Calm -- 30.01 in1016.3 mb 0.00 in0.0 mm 0.00 in0.0 mm 0.14 in3.6 mm
11:38 PM 50.5°F10.3°C 40.1°F4.5°C 67% Calm Calm -- 30.01 in1016.3 mb 0.00 in0.0 mm 0.00 in0.0 mm 0.14 in3.6 mm
11:45 PM 50.4°F10.2°C 40.1°F4.5°C 68% Calm Calm -- 30.01 in1016.3 mb 0.00 in0.0 mm 0.00 in0.0 mm 0.14 in3.6 mm
11:52 PM 50.4°F10.2°C 40.6°F4.8°C 69% Calm Calm -- 30.01 in1016.3 mb 0.00 in0.0 mm 0.00 in0.0 mm 0.14 in3.6 mm
11:59 PM 50.4°F10.2°C 40.6°F4.8°C 69% Calm Calm -- 30.01 in1016.3 mb 0.00 in0.0 mm 0.00 in0.0 mm 0.14 in3.6 mm